Time;durP1;ratioP1;P1;durP2;ratioP2;P2;SDS_P1;SDS_P2;PMS_P1;PMS_P2;Temp;Humidity;BMP_temperature;BMP_pressure;BME280_temperature;BME280_humidity;BME280_pressure;Samples;Min_cycle;Max_cycle;Signal;HPM_P1;HPM_P2
2022/04/19 00:01:42;;;;;;;11.65;3.97;;;;;;;11.20;54.21;100350.81;4034151;29;20124;-57
2022/04/19 00:03:45;;;;;;;7.78;3.83;;;;;;;11.19;53.74;100343.84;4035326;29;20583;-57
2022/04/19 00:05:48;;;;;;;9.32;4.28;;;;;;;11.16;54.02;100342.09;4036611;29;20040;-57
2022/04/19 00:07:51;;;;;;;8.15;3.65;;;;;;;11.15;54.40;100342.94;4034877;29;20055;-58
2022/04/19 00:09:54;;;;;;;7.20;4.05;;;;;;;11.13;53.62;100341.19;4035123;29;20051;-57
2022/04/19 00:11:57;;;;;;;7.70;3.50;;;;;;;11.11;53.88;100343.78;4036472;29;20145;-58
2022/04/19 00:14:00;;;;;;;6.15;3.67;;;;;;;11.09;53.79;100342.00;4034033;29;20416;-57
2022/04/19 00:16:04;;;;;;;5.63;3.20;;;;;;;11.06;53.56;100342.84;4025302;29;20124;-57
2022/04/19 00:18:10;;;;;;;13.45;4.03;;;;;;;10.99;53.35;100341.03;4033272;29;20503;-58
2022/04/19 00:20:13;;;;;;;5.95;3.58;;;;;;;10.87;53.23;100340.91;4033905;29;20120;-57
2022/04/19 00:22:17;;;;;;;7.55;3.72;;;;;;;10.81;53.47;100339.97;4035011;29;20085;-57
2022/04/19 00:24:20;;;;;;;6.00;3.67;;;;;;;10.78;53.00;100342.53;4028712;29;20124;-57
2022/04/19 00:26:23;;;;;;;5.47;3.75;;;;;;;10.81;52.61;100342.59;4033557;29;20132;-58
2022/04/19 00:28:27;;;;;;;7.45;3.63;;;;;;;10.81;52.17;100337.38;4020633;29;20136;-58
2022/04/19 00:30:32;;;;;;;10.27;3.40;;;;;;;10.85;52.50;100340.91;4029338;29;20132;-58
2022/04/19 00:32:35;;;;;;;5.47;3.25;;;;;;;10.82;52.18;100339.13;4014562;29;20301;-57
2022/04/19 00:34:40;;;;;;;7.20;3.90;;;;;;;10.87;51.42;100339.19;4027202;29;20093;-57
2022/04/19 00:36:43;;;;;;;7.53;4.20;;;;;;;10.81;51.72;100337.38;4035852;29;20047;-58
2022/04/19 00:38:47;;;;;;;6.80;3.63;;;;;;;10.80;51.92;100330.41;4023295;29;20045;-58
2022/04/19 00:40:50;;;;;;;7.03;3.70;;;;;;;10.83;52.38;100330.47;4024569;29;20041;-58
2022/04/19 00:42:53;;;;;;;6.95;3.83;;;;;;;10.83;52.62;100330.47;4024442;29;20125;-58
2022/04/19 00:44:56;;;;;;;7.72;3.80;;;;;;;10.82;52.39;100326.13;4038709;29;20040;-58
2022/04/19 00:46:59;;;;;;;6.57;3.67;;;;;;;10.80;52.37;100326.97;4023219;29;20066;-57
2022/04/19 00:49:02;;;;;;;8.77;3.83;;;;;;;10.80;52.74;100329.56;4038606;29;20089;-57
2022/04/19 00:51:07;;;;;;;7.57;3.45;;;;;;;10.79;53.20;100336.50;4023270;29;20128;-58
2022/04/19 00:53:12;;;;;;;6.45;3.38;;;;;;;10.75;53.67;100326.91;4023270;29;20524;-58
2022/04/19 00:55:16;;;;;;;11.45;3.90;;;;;;;10.74;53.77;100324.31;4035110;29;20041;-58
2022/04/19 00:57:22;;;;;;;5.97;3.77;;;;;;;10.71;53.15;100325.13;4033020;29;20037;-58
2022/04/19 00:59:26;;;;;;;5.60;3.47;;;;;;;10.68;53.24;100321.63;4031905;29;20388;-59
2022/04/19 01:01:29;;;;;;;6.50;3.75;;;;;;;10.61;53.56;100323.28;4048805;29;20064;-58
2022/04/19 01:03:32;;;;;;;7.63;4.25;;;;;;;10.52;54.22;100317.97;4033233;29;20468;-58
2022/04/19 01:05:44;;;;;;;6.32;4.18;;;;;;;10.51;53.80;100313.63;4035905;29;20133;-58
2022/04/19 01:07:53;;;;;;;6.72;3.85;;;;;;;10.52;53.56;100323.19;4035425;29;20048;-58
2022/04/19 01:10:00;;;;;;;6.75;3.47;;;;;;;10.38;53.79;100321.28;4035751;29;20045;-58
2022/04/19 01:14:28;;;;;;;8.18;4.13;;;;;;;10.29;54.47;100326.31;4024016;29;20136;-58
2022/04/19 01:16:31;;;;;;;9.55;4.28;;;;;;;10.29;54.54;100318.50;4042835;29;20121;-58
2022/04/19 01:18:37;;;;;;;8.27;3.33;;;;;;;10.31;54.88;100314.22;4032947;29;20049;-58
2022/04/19 01:20:41;;;;;;;10.95;4.43;;;;;;;10.27;55.00;100312.44;4035549;29;20504;-58
2022/04/19 01:22:52;;;;;;;10.75;4.20;;;;;;;10.28;55.31;100306.41;4010055;29;20057;-58
2022/04/19 01:24:59;;;;;;;6.78;4.03;;;;;;;10.28;55.66;100307.25;4031445;29;20115;-58
2022/04/19 01:27:03;;;;;;;6.93;3.65;;;;;;;10.26;56.29;100313.28;4033718;29;20040;-58
2022/04/19 01:29:06;;;;;;;6.38;3.83;;;;;;;10.17;57.10;100313.19;4008021;29;20050;-58
2022/04/19 01:31:11;;;;;;;6.20;3.60;;;;;;;10.15;57.31;100310.56;4032630;29;20041;-58
2022/04/19 01:33:21;;;;;;;7.38;3.90;;;;;;;10.06;57.96;100313.00;4033490;29;20093;-58
2022/04/19 01:35:25;;;;;;;9.57;4.03;;;;;;;9.94;58.11;100316.31;4034670;29;20048;-58
2022/04/19 01:37:34;;;;;;;5.22;3.30;;;;;;;9.86;58.67;100315.34;4022085;29;20065;-58
2022/04/19 01:41:59;;;;;;;7.18;3.97;;;;;;;9.79;59.79;100323.00;4022462;29;20140;-58
2022/04/19 01:44:02;;;;;;;7.82;4.22;;;;;;;9.76;59.68;100319.50;4037725;29;20144;-58
2022/04/19 01:46:05;;;;;;;7.15;3.72;;;;;;;9.69;59.96;100318.53;4037692;29;20041;-60
2022/04/19 01:48:09;;;;;;;7.95;4.57;;;;;;;9.65;60.19;100310.69;4037508;29;20047;-58
2022/04/19 01:50:16;;;;;;;9.40;4.22;;;;;;;9.54;59.91;100318.31;4037838;29;20053;-58
2022/04/19 01:52:19;;;;;;;9.98;4.30;;;;;;;9.56;59.97;100311.41;4022475;29;20037;-58
2022/04/19 01:54:23;;;;;;;10.03;4.53;;;;;;;9.58;59.77;100320.13;4035277;29;20060;-58
2022/04/19 01:56:28;;;;;;;7.50;4.32;;;;;;;9.66;59.14;100310.69;4019547;29;20078;-58
2022/04/19 01:58:31;;;;;;;9.60;4.40;;;;;;;9.67;58.31;100319.38;4023335;29;20059;-58
2022/04/19 02:00:35;;;;;;;7.95;4.07;;;;;;;9.68;58.35;100306.44;4037633;29;20093;-58
2022/04/19 02:02:40;;;;;;;8.55;3.22;;;;;;;9.69;58.49;100310.75;4037631;29;20056;-58
2022/04/19 02:04:43;;;;;;;6.90;4.57;;;;;;;9.66;58.62;100308.09;4013289;29;20042;-58
2022/04/19 02:06:46;;;;;;;6.15;3.97;;;;;;;9.70;58.46;100299.53;4016704;29;20056;-58
2022/04/19 02:08:49;;;;;;;6.45;3.90;;;;;;;9.74;58.14;100301.31;4025503;29;20132;-58
2022/04/19 02:10:56;;;;;;;11.05;4.47;;;;;;;9.76;57.71;100302.19;4017330;29;20053;-58
2022/04/19 02:13:02;;;;;;;10.18;4.25;;;;;;;9.81;57.82;100301.41;4035570;29;20061;-58
2022/04/19 02:15:28;;;;;;;8.05;4.00;;;;;;;9.76;57.74;100291.81;4035422;29;20049;-58
2022/04/19 02:17:34;;;;;;;11.35;4.82;;;;;;;9.77;57.34;100293.56;4019728;29;20037;-58
2022/04/19 02:19:38;;;;;;;6.88;3.70;;;;;;;9.75;57.36;100290.09;4035447;29;20052;-58
2022/04/19 02:21:41;;;;;;;7.82;4.25;;;;;;;9.73;57.40;100293.50;4035529;29;20419;-58
2022/04/19 02:23:44;;;;;;;7.00;3.95;;;;;;;9.67;57.39;100288.22;4036071;29;20049;-58
2022/04/19 02:25:52;;;;;;;10.63;4.55;;;;;;;9.56;57.62;100294.13;4034886;29;20049;-58
2022/04/19 02:27:55;;;;;;;9.38;4.43;;;;;;;9.60;57.20;100282.06;4033585;29;20045;-58
2022/04/19 02:30:07;;;;;;;6.90;3.83;;;;;;;9.65;57.09;100282.13;4034845;29;20048;-58
2022/04/19 02:32:10;;;;;;;7.72;4.32;;;;;;;9.64;58.11;100281.28;4021995;29;20090;-58
2022/04/19 02:34:15;;;;;;;7.75;4.30;;;;;;;9.69;58.16;100276.13;4023243;29;20514;-58
2022/04/19 02:36:18;;;;;;;9.15;4.43;;;;;;;9.65;57.76;100275.25;4023130;29;20579;-58
2022/04/19 02:38:22;;;;;;;9.38;4.25;;;;;;;9.59;57.40;100275.13;4037019;29;20092;-58
2022/04/19 02:40:27;;;;;;;11.48;4.28;;;;;;;9.55;57.51;100275.91;4023069;29;20054;-58
2022/04/19 02:42:33;;;;;;;11.25;4.30;;;;;;;9.54;57.72;100272.47;4021974;29;20049;-58
2022/04/19 02:44:37;;;;;;;6.75;3.72;;;;;;;9.55;57.17;100273.31;4037511;29;20045;-58
2022/04/19 02:46:46;;;;;;;8.30;3.95;;;;;;;9.44;56.90;100268.84;4037925;29;20056;-58
2022/04/19 02:48:50;;;;;;;7.10;4.07;;;;;;;9.46;57.10;100278.38;4040385;29;20076;-58
2022/04/19 02:50:53;;;;;;;7.53;4.13;;;;;;;9.48;56.97;100272.38;4025015;29;20042;-58
2022/04/19 02:52:56;;;;;;;7.88;4.65;;;;;;;9.48;56.96;100268.91;4019871;29;20056;-59
2022/04/19 02:54:59;;;;;;;12.10;4.10;;;;;;;9.49;56.71;100271.53;4050556;29;20041;-58
2022/04/19 02:57:02;;;;;;;9.45;4.20;;;;;;;9.53;56.64;100265.50;4050125;29;20504;-58
2022/04/19 02:59:05;;;;;;;7.72;4.20;;;;;;;9.53;56.55;100269.84;4050478;29;20057;-58
2022/04/19 03:01:08;;;;;;;7.28;4.20;;;;;;;9.51;56.65;100271.56;4024802;29;20420;-58
2022/04/19 03:03:12;;;;;;;5.28;3.42;;;;;;;9.52;56.39;100268.09;4040230;29;20053;-58
2022/04/19 03:05:15;;;;;;;8.77;5.13;;;;;;;9.51;56.48;100271.56;4040215;29;20049;-58
2022/04/19 03:07:20;;;;;;;8.25;4.57;;;;;;;9.54;56.26;100276.78;4024343;29;20037;-58
2022/04/19 03:09:23;;;;;;;6.53;4.18;;;;;;;9.53;56.51;100269.84;4015841;29;20042;-58
2022/04/19 03:11:26;;;;;;;9.55;4.82;;;;;;;9.53;56.63;100275.91;4034805;29;20049;-58
2022/04/19 03:13:33;;;;;;;7.38;4.47;;;;;;;9.51;56.76;100274.16;4019438;29;20042;-58
2022/04/19 03:15:37;;;;;;;8.82;4.70;;;;;;;9.48;56.52;100272.38;4034697;29;20049;-58
2022/04/19 03:17:41;;;;;;;5.97;4.15;;;;;;;9.48;56.72;100271.50;4025803;29;20041;-58
2022/04/19 03:19:47;;;;;;;6.63;4.15;;;;;;;9.39;56.52;100270.50;4025468;29;20057;-58
2022/04/19 03:21:50;;;;;;;7.25;4.03;;;;;;;9.33;56.13;100267.81;4019016;29;20081;-58
2022/04/19 03:28:34;;;;;;;8.77;4.00;;;;;;;9.18;56.26;100262.38;4047556;29;20041;-58
2022/04/19 03:30:39;;;;;;;7.53;3.90;;;;;;;9.19;55.84;100269.31;4025565;29;20048;-58
2022/04/19 03:32:44;;;;;;;6.30;3.90;;;;;;;9.21;56.15;100262.41;4039761;29;20072;-57
2022/04/19 03:34:49;;;;;;;6.15;3.70;;;;;;;9.19;56.27;100256.34;4039756;29;20063;-57
2022/04/19 03:36:53;;;;;;;6.35;3.85;;;;;;;9.18;57.04;100262.38;4023875;29;20049;-57
2022/04/19 03:38:57;;;;;;;6.85;4.10;;;;;;;9.14;57.19;100257.97;4039551;29;20136;-58
2022/04/19 03:41:00;;;;;;;10.05;3.95;;;;;;;9.11;57.36;100260.53;4034472;29;20048;-57
2022/04/19 03:43:08;;;;;;;10.55;4.00;;;;;;;9.11;57.52;100256.19;4036272;29;20053;-58
2022/04/19 03:45:12;;;;;;;8.23;4.13;;;;;;;9.10;57.84;100264.84;4023252;29;20057;-58
2022/04/19 03:47:15;;;;;;;8.38;4.30;;;;;;;9.11;57.26;100265.69;4021801;29;20041;-57
2022/04/19 03:49:17;;;;;;;8.68;3.88;;;;;;;9.17;57.07;100263.22;4023297;29;20048;-57
2022/04/19 03:51:22;;;;;;;8.90;4.03;;;;;;;9.20;57.25;100258.97;4029383;29;20041;-57
2022/04/19 03:53:25;;;;;;;10.50;4.78;;;;;;;9.22;57.60;100258.97;4036940;29;20045;-57
2022/04/19 03:55:28;;;;;;;7.15;3.65;;;;;;;9.24;57.90;100260.75;4031197;29;20423;-57
2022/04/19 03:57:31;;;;;;;7.10;4.18;;;;;;;9.23;58.39;100265.94;4031116;29;20089;-58
2022/04/19 03:59:38;;;;;;;8.00;3.92;;;;;;;9.21;58.03;100262.41;4023381;29;20057;-57
2022/04/19 04:01:41;;;;;;;6.15;4.18;;;;;;;9.18;58.90;100277.94;4039329;29;20056;-57
2022/04/19 04:03:47;;;;;;;10.05;4.00;;;;;;;9.14;58.70;100273.53;4023940;29;20074;-57
2022/04/19 04:05:50;;;;;;;8.35;4.53;;;;;;;9.13;59.15;100262.28;4039322;29;20046;-57
2022/04/19 04:07:57;;;;;;;9.80;4.45;;;;;;;9.14;58.95;100271.84;4025597;29;20063;-57
2022/04/19 04:10:01;;;;;;;9.50;4.70;;;;;;;9.11;58.87;100266.56;4028711;29;20117;-57
2022/04/19 04:12:09;;;;;;;6.20;3.85;;;;;;;9.11;58.92;100268.28;4036562;29;20041;-57
2022/04/19 04:14:13;;;;;;;6.68;4.80;;;;;;;9.08;59.36;100269.09;4030688;29;20065;-57
2022/04/19 04:16:16;;;;;;;6.75;4.55;;;;;;;9.07;58.94;100268.25;4039115;29;20053;-57
2022/04/19 04:18:20;;;;;;;8.35;4.82;;;;;;;9.02;58.96;100277.69;4023233;29;20040;-56
2022/04/19 04:20:23;;;;;;;7.90;4.80;;;;;;;8.98;58.77;100272.38;4039064;29;20101;-57
2022/04/19 04:22:26;;;;;;;10.05;4.53;;;;;;;9.01;57.92;100270.75;4039053;29;20040;-57
2022/04/19 04:24:31;;;;;;;8.25;4.32;;;;;;;9.07;57.11;100269.97;4023613;29;20099;-57
2022/04/19 04:26:34;;;;;;;9.82;5.82;;;;;;;9.04;58.22;100273.38;4016960;29;20074;-57
2022/04/19 04:28:37;;;;;;;9.15;4.57;;;;;;;9.03;58.18;100273.34;4025692;29;20045;-57
2022/04/19 04:30:40;;;;;;;9.68;4.63;;;;;;;9.00;58.92;100279.34;4038965;29;20053;-58
2022/04/19 04:32:44;;;;;;;9.55;4.93;;;;;;;8.96;59.11;100267.19;4023703;29;20053;-57
2022/04/19 04:34:47;;;;;;;8.80;4.23;;;;;;;8.90;59.73;100267.06;4038980;29;20547;-57
2022/04/19 04:36:51;;;;;;;6.93;4.55;;;;;;;8.88;59.96;100273.97;4029289;29;20306;-58
2022/04/19 04:38:57;;;;;;;9.70;4.20;;;;;;;8.85;59.94;100279.09;4052152;29;20080;-58
2022/04/19 04:41:21;;;;;;;7.78;4.70;;;;;;;8.76;60.39;100274.63;4037643;29;20124;-58
2022/04/19 04:43:24;;;;;;;8.23;4.88;;;;;;;8.73;60.77;100275.44;4035774;29;20073;-58
2022/04/19 04:45:28;;;;;;;7.80;4.67;;;;;;;8.74;61.39;100277.16;4023183;29;20048;-58
2022/04/19 04:49:51;;;;;;;11.10;4.47;;;;;;;8.68;62.09;100281.38;4021763;29;20056;-58
2022/04/19 04:51:55;;;;;;;7.20;4.50;;;;;;;8.72;61.11;100281.44;4020370;29;20300;-58
2022/04/19 04:53:58;;;;;;;7.30;3.67;;;;;;;8.71;60.73;100277.09;4023152;29;20084;-58
2022/04/19 04:56:04;;;;;;;10.48;4.70;;;;;;;8.73;61.24;100277.13;4018053;29;20102;-58
2022/04/19 04:58:10;;;;;;;7.72;4.32;;;;;;;8.76;60.99;100286.69;4032899;29;20062;-58
2022/04/19 05:00:14;;;;;;;11.88;5.45;;;;;;;8.79;59.75;100284.16;4023072;29;20038;-58
2022/04/19 05:02:25;;;;;;;9.60;4.68;;;;;;;8.80;61.02;100285.91;4023031;29;20041;-58
2022/04/19 05:04:29;;;;;;;9.10;4.38;;;;;;;8.80;61.31;100291.09;4038436;29;20044;-58
2022/04/19 05:06:34;;;;;;;12.65;5.20;;;;;;;8.75;61.44;100285.81;4038040;29;20460;-57
2022/04/19 05:08:37;;;;;;;6.80;4.35;;;;;;;8.72;61.53;100284.03;4024244;29;20038;-58
2022/04/19 05:10:41;;;;;;;9.00;4.80;;;;;;;8.72;61.33;100284.03;4015607;29;20073;-58
2022/04/19 05:12:51;;;;;;;8.63;3.95;;;;;;;8.69;62.08;100289.16;4025050;29;20041;-59
2022/04/19 05:15:01;;;;;;;10.60;5.00;;;;;;;8.72;62.34;100290.94;4048373;29;20064;-58
2022/04/19 05:17:08;;;;;;;8.50;4.72;;;;;;;8.72;62.43;100283.19;4034983;29;20048;-58
2022/04/19 05:19:16;;;;;;;9.98;5.07;;;;;;;8.69;63.06;100291.75;4035587;29;20524;-58
2022/04/19 05:21:22;;;;;;;11.60;5.10;;;;;;;8.73;63.36;100293.56;4022820;29;20041;-58
2022/04/19 05:23:24;;;;;;;7.15;4.40;;;;;;;8.77;63.16;100288.44;4031127;29;20124;-60
2022/04/19 05:25:27;;;;;;;8.30;4.43;;;;;;;8.81;63.40;100298.03;4013673;29;20050;-58
2022/04/19 05:27:31;;;;;;;8.20;4.43;;;;;;;8.82;63.65;100295.47;4044455;29;20048;-57
2022/04/19 05:29:34;;;;;;;9.40;4.50;;;;;;;8.86;62.40;100291.19;4022674;29;20549;-58
2022/04/19 05:31:38;;;;;;;9.95;4.95;;;;;;;8.93;63.10;100293.06;4038116;29;20052;-58
2022/04/19 05:33:43;;;;;;;10.07;5.40;;;;;;;8.94;63.35;100296.53;4038046;29;20389;-58
2022/04/19 05:35:46;;;;;;;8.52;3.95;;;;;;;8.93;63.38;100287.88;4023809;29;20129;-58
2022/04/19 05:37:49;;;;;;;10.18;5.25;;;;;;;8.94;63.44;100300.00;4023315;29;20097;-59
2022/04/19 05:39:52;;;;;;;8.55;4.75;;;;;;;8.95;64.11;100301.75;4037994;29;20037;-59
2022/04/19 05:41:55;;;;;;;10.40;5.32;;;;;;;9.02;63.68;100302.72;4022581;29;20044;-58
2022/04/19 05:43:58;;;;;;;9.43;4.32;;;;;;;9.13;59.13;100305.53;4023699;29;20060;-58
2022/04/19 05:46:01;;;;;;;9.13;4.78;;;;;;;9.17;60.23;100296.91;4032354;29;20132;-58
2022/04/19 05:48:06;;;;;;;8.60;4.20;;;;;;;9.29;60.12;100310.13;4033765;29;20040;-58
2022/04/19 05:50:11;;;;;;;8.27;4.47;;;;;;;9.37;58.31;100311.09;4019727;29;20044;-58
2022/04/19 05:52:14;;;;;;;12.68;5.20;;;;;;;9.49;56.76;100307.84;4029297;29;20045;-58
2022/04/19 05:54:19;;;;;;;10.13;5.43;;;;;;;9.55;55.39;100307.06;4031382;29;20037;-58
2022/04/19 05:56:22;;;;;;;14.32;4.90;;;;;;;9.61;56.34;100309.78;4047843;29;20072;-58
2022/04/19 05:58:25;;;;;;;9.60;4.60;;;;;;;9.70;54.50;100315.09;4032205;29;20045;-58
2022/04/19 06:00:28;;;;;;;15.57;4.90;;;;;;;9.74;56.03;100314.31;4032541;29;20069;-58
2022/04/19 06:04:59;;;;;;;14.20;5.20;;;;;;;9.99;51.51;100314.66;4035134;29;20514;-58
2022/04/19 06:07:05;;;;;;;13.00;5.25;;;;;;;10.03;50.71;100307.78;4021907;29;20136;-58
2022/04/19 06:09:12;;;;;;;14.07;5.00;;;;;;;10.02;51.07;100306.91;4027416;29;20563;-58
2022/04/19 06:11:15;;;;;;;19.70;5.28;;;;;;;10.04;50.56;100310.38;4022272;29;20477;-58
2022/04/19 06:13:18;;;;;;;13.77;5.07;;;;;;;10.12;50.39;100308.78;4029449;29;20137;-58
2022/04/19 06:15:21;;;;;;;9.68;4.53;;;;;;;10.16;50.75;100314.00;4037502;29;20044;-58
2022/04/19 06:17:27;;;;;;;12.70;4.93;;;;;;;10.19;50.63;100308.84;4037094;29;20499;-58
2022/04/19 06:19:30;;;;;;;12.77;5.20;;;;;;;10.28;50.49;100309.00;4037491;29;20033;-58
2022/04/19 06:21:35;;;;;;;8.60;4.35;;;;;;;10.24;50.61;100317.59;4030444;29;20536;-58
2022/04/19 06:23:38;;;;;;;;;;;;;;;10.03;50.68;100311.25;4042975;29;20052;-58
2022/04/19 06:25:42;;;;;;;18.13;5.55;;;;;;;10.19;50.72;100311.47;4037535;29;19924;-58
2022/04/19 06:27:46;;;;;;;19.92;4.93;;;;;;;10.36;50.18;100312.59;4037109;29;20437;-58
2022/04/19 06:29:51;;;;;;;13.02;5.20;;;;;;;10.37;49.51;100314.34;4040038;29;20067;-61
2022/04/19 06:31:55;;;;;;;8.60;4.25;;;;;;;10.40;49.88;100314.38;4052966;29;20119;-58
2022/04/19 06:34:04;;;;;;;18.40;4.63;;;;;;;10.37;50.29;100309.13;4052933;29;20515;-58
2022/04/19 06:36:24;;;;;;;17.88;5.28;;;;;;;10.44;49.63;100308.38;4037284;29;20504;-58
2022/04/19 06:38:29;;;;;;;14.05;5.75;;;;;;;10.59;48.95;100309.41;4039622;29;20053;-58
2022/04/19 06:40:33;;;;;;;13.43;5.88;;;;;;;10.61;49.10;100305.09;4015617;29;20535;-58
2022/04/19 06:42:36;;;;;;;15.80;5.38;;;;;;;10.79;48.32;100313.09;4011644;29;20057;-58
2022/04/19 06:45:00;;;;;;;7.97;4.38;;;;;;;10.88;47.63;100311.44;4029752;29;20099;-58
2022/04/19 06:47:07;;;;;;;10.38;4.55;;;;;;;10.81;47.84;100311.38;4021588;29;20059;-58
2022/04/19 06:49:12;;;;;;;16.60;5.38;;;;;;;10.78;48.86;100310.47;4037290;29;20037;-58
2022/04/19 06:51:15;;;;;;;7.22;3.88;;;;;;;10.75;48.02;100305.25;4026438;29;20493;-58
2022/04/19 06:53:40;;;;;;;9.27;4.30;;;;;;;10.81;48.66;100313.13;4026772;29;20428;-58
2022/04/19 06:56:07;;;;;;;9.70;5.22;;;;;;;11.00;47.17;100307.22;4027025;29;20686;-58
2022/04/19 06:58:11;;;;;;;12.82;5.20;;;;;;;10.96;47.69;100305.44;4016932;29;20584;-58
2022/04/19 07:00:15;;;;;;;11.23;5.60;;;;;;;11.21;46.90;100304.81;4023822;29;20523;-58
2022/04/19 07:02:18;;;;;;;9.20;4.25;;;;;;;11.10;47.67;100315.16;4031410;29;20492;-58
2022/04/19 07:04:24;;;;;;;9.85;5.13;;;;;;;11.06;47.70;100318.56;4028364;29;20053;-58
2022/04/19 07:06:29;;;;;;;;;;;;;;;10.94;47.18;100311.53;4032698;29;20420;-58
2022/04/19 07:08:32;;;;;;;11.20;4.47;;;;;;;11.03;47.40;100316.81;4032759;29;20430;-58
2022/04/19 07:10:36;;;;;;;9.55;5.22;;;;;;;11.36;45.62;100307.59;4052616;29;20387;-58
2022/04/19 07:12:57;;;;;;;14.95;5.32;;;;;;;11.38;46.37;100308.44;4038323;29;20135;-58
2022/04/19 07:15:00;;;;;;;10.48;5.22;;;;;;;11.37;46.02;100311.03;4039696;29;20131;-58
2022/04/19 07:17:13;;;;;;;16.30;6.10;;;;;;;11.41;46.60;100307.63;4036775;29;20113;-58
2022/04/19 07:19:22;;;;;;;8.73;4.93;;;;;;;11.54;45.89;100306.84;4027942;29;20148;-58
2022/04/19 07:26:48;;;;;;;6.68;4.95;;;;;;;11.56;47.42;100302.50;3980116;29;20528;-58
2022/04/19 07:28:53;;;;;;;8.30;5.00;;;;;;;11.55;47.97;100305.09;4033030;29;20715;-58
2022/04/19 07:30:57;;;;;;;11.40;5.13;;;;;;;11.57;47.73;100303.41;4038205;29;20418;-58
2022/04/19 07:33:02;;;;;;;10.48;6.13;;;;;;;11.60;48.00;100299.06;4050861;29;20527;-58
2022/04/19 07:35:08;;;;;;;9.43;5.22;;;;;;;11.67;46.84;100300.00;4008940;29;20568;-58
2022/04/19 07:37:11;;;;;;;8.33;4.60;;;;;;;11.77;47.27;100299.19;4050792;29;20526;-58
2022/04/19 07:39:15;;;;;;;13.48;5.38;;;;;;;11.92;47.84;100300.16;4034462;29;20487;-58
2022/04/19 07:41:20;;;;;;;15.10;6.80;;;;;;;12.03;47.45;100299.41;4049962;29;20228;-58
2022/04/19 07:43:25;;;;;;;10.02;4.78;;;;;;;12.09;46.65;100293.34;4039702;29;20128;-58
2022/04/19 07:45:27;;;;;;;8.63;5.80;;;;;;;12.13;46.28;100295.09;4025394;29;20415;-58
2022/04/19 07:47:32;;;;;;;10.80;4.85;;;;;;;12.16;46.32;100291.63;4039202;29;20045;-58
2022/04/19 07:49:36;;;;;;;13.80;5.90;;;;;;;12.27;46.33;100296.91;4024207;29;20531;-58
2022/04/19 07:51:39;;;;;;;8.40;4.88;;;;;;;12.35;46.01;100296.09;4025405;29;20040;-58
2022/04/19 07:53:42;;;;;;;8.77;4.82;;;;;;;12.47;45.67;100294.38;4039510;29;20049;-58
2022/04/19 07:55:51;;;;;;;10.65;5.00;;;;;;;12.61;46.13;100289.22;4039418;29;20101;-58
2022/04/19 07:57:54;;;;;;;13.18;5.68;;;;;;;12.74;45.14;100294.44;4031943;29;20080;-58
2022/04/19 07:59:58;;;;;;;8.95;4.78;;;;;;;12.75;46.18;100284.91;4036714;29;20495;-58
2022/04/19 08:02:04;;;;;;;11.30;5.38;;;;;;;12.76;45.76;100286.63;4035446;29;20480;-58
2022/04/19 08:04:07;;;;;;;11.47;6.00;;;;;;;12.84;45.86;100284.06;4033017;29;20411;-58
2022/04/19 08:06:11;;;;;;;12.70;6.03;;;;;;;12.98;44.62;100281.47;4022801;29;20045;-58
2022/04/19 08:08:14;;;;;;;13.35;6.43;;;;;;;13.07;44.68;100282.34;4037687;29;20037;-58
2022/04/19 08:10:18;;;;;;;11.80;5.45;;;;;;;13.13;44.88;100284.09;4019356;29;20044;-58
2022/04/19 08:12:22;;;;;;;12.20;5.43;;;;;;;13.12;45.07;100277.13;4029540;29;20049;-58
2022/04/19 08:14:25;;;;;;;10.00;5.45;;;;;;;13.10;45.02;100279.75;4024778;29;20038;-58
2022/04/19 08:16:30;;;;;;;11.52;5.63;;;;;;;13.04;43.97;100281.47;4038984;29;20041;-58
2022/04/19 08:18:33;;;;;;;10.85;5.88;;;;;;;13.04;45.03;100281.47;4023475;29;20037;-58
2022/04/19 08:20:36;;;;;;;13.25;5.70;;;;;;;13.04;44.50;100271.03;4038903;29;20063;-59
2022/04/19 08:22:39;;;;;;;11.98;5.68;;;;;;;13.16;44.54;100275.41;4023595;29;20049;-58
2022/04/19 08:24:47;;;;;;;12.45;6.10;;;;;;;13.24;44.21;100279.75;4039022;29;20089;-58
2022/04/19 08:26:50;;;;;;;10.57;5.82;;;;;;;13.48;43.84;100277.16;4023354;29;20037;-58
2022/04/19 08:28:53;;;;;;;16.98;7.50;;;;;;;13.71;42.57;100277.13;4024817;29;20045;-59
2022/04/19 08:30:57;;;;;;;18.20;6.78;;;;;;;13.69;42.62;100276.28;4024773;29;20045;-58
2022/04/19 08:33:06;;;;;;;11.98;6.38;;;;;;;13.82;42.06;100270.16;4038959;29;20037;-58
2022/04/19 08:35:10;;;;;;;8.77;5.40;;;;;;;13.73;42.51;100268.44;4023607;29;20425;-58
2022/04/19 08:37:13;;;;;;;11.55;6.63;;;;;;;13.59;43.43;100268.47;4037490;29;20070;-59
2022/04/19 08:39:16;;;;;;;10.18;5.93;;;;;;;13.68;43.02;100269.31;4027654;29;20046;-58
2022/04/19 08:41:21;;;;;;;15.65;6.78;;;;;;;13.75;42.84;100271.03;4038712;29;20037;-58
2022/04/19 08:43:24;;;;;;;10.48;5.75;;;;;;;13.88;43.32;100267.50;4033582;29;20131;-58
2022/04/19 08:45:28;;;;;;;9.50;6.05;;;;;;;13.96;43.54;100265.75;4024256;29;20053;-58
2022/04/19 08:47:31;;;;;;;16.27;7.47;;;;;;;14.26;41.52;100269.13;4033315;29;20132;-58
2022/04/19 08:49:40;;;;;;;16.15;7.28;;;;;;;14.36;41.32;100264.75;4033521;29;20092;-58
2022/04/19 08:51:45;;;;;;;14.52;7.90;;;;;;;14.35;40.99;100268.22;4030810;29;20052;-58
2022/04/19 08:58:29;;;;;;;15.77;7.13;;;;;;;14.19;41.13;100266.56;4034567;29;20041;-58
2022/04/19 09:00:32;;;;;;;19.17;7.43;;;;;;;14.34;41.42;100271.75;4035163;29;20049;-58
2022/04/19 09:02:41;;;;;;;13.07;7.55;;;;;;;14.56;40.61;100264.66;4029085;29;20059;-58
2022/04/19 09:04:47;;;;;;;15.98;8.30;;;;;;;14.81;40.04;100257.56;4034660;29;20124;-58
2022/04/19 09:06:51;;;;;;;15.60;8.20;;;;;;;14.77;39.93;100260.19;4031537;29;20095;-58
2022/04/19 09:09:09;;;;;;;17.65;7.70;;;;;;;14.94;39.41;100254.88;4024365;29;20127;-58
2022/04/19 09:11:12;;;;;;;14.27;7.90;;;;;;;14.97;39.54;100258.31;4024283;29;20072;-58
2022/04/19 09:13:21;;;;;;;18.77;8.95;;;;;;;15.15;40.00;100252.06;4023145;29;20065;-58
2022/04/19 09:15:24;;;;;;;22.58;9.23;;;;;;;15.26;39.93;100249.38;4025138;29;20041;-58
2022/04/19 09:17:32;;;;;;;15.65;8.70;;;;;;;15.39;39.26;100249.25;4034038;29;20041;-58
2022/04/19 09:19:37;;;;;;;20.10;10.45;;;;;;;15.45;37.80;100243.94;4034539;29;20048;-58
2022/04/19 09:21:42;;;;;;;13.15;7.45;;;;;;;15.35;38.37;100246.66;4027460;29;20322;-58
2022/04/19 09:23:53;;;;;;;14.93;10.43;;;;;;;15.38;38.54;100237.06;4032908;29;20109;-58
2022/04/19 09:25:57;;;;;;;15.65;8.73;;;;;;;15.53;37.78;100237.75;4033117;29;20056;-58
2022/04/19 09:28:01;;;;;;;20.48;7.97;;;;;;;15.55;37.57;100227.28;4034012;29;20041;-58
2022/04/19 09:30:17;;;;;;;12.98;7.78;;;;;;;15.52;38.29;100235.16;4035799;29;20045;-58
2022/04/19 09:32:20;;;;;;;13.13;6.97;;;;;;;15.58;39.07;100229.00;4034302;29;20048;-58
2022/04/19 09:34:24;;;;;;;15.13;8.52;;;;;;;15.74;38.64;100229.69;4035498;29;20511;-58
2022/04/19 09:36:27;;;;;;;;;;;;;;;15.86;36.84;100227.00;4024366;29;20041;-58
2022/04/19 09:38:37;;;;;;;16.20;9.20;;;;;;;15.95;37.53;100224.25;4023761;29;19935;-58
2022/04/19 09:40:42;;;;;;;18.13;8.95;;;;;;;16.08;37.77;100221.47;4025797;29;20136;-58
2022/04/19 09:42:45;;;;;;;11.57;7.43;;;;;;;16.12;37.44;100221.44;4022718;29;20049;-58
2022/04/19 09:44:51;;;;;;;20.10;9.90;;;;;;;16.29;36.25;100210.72;4022653;29;20053;-58
2022/04/19 09:47:02;;;;;;;18.08;9.57;;;;;;;16.35;36.27;100212.38;4023528;29;20049;-58
2022/04/19 09:49:05;;;;;;;17.83;9.15;;;;;;;16.38;35.53;100205.34;4024050;29;20090;-58
2022/04/19 09:51:10;;;;;;;14.38;8.68;;;;;;;16.37;35.33;100202.75;4022706;29;20069;-58
2022/04/19 09:53:17;;;;;;;;;;;;;;;16.45;36.09;100200.00;4016075;29;20097;-58
2022/04/19 09:55:23;;;;;;;12.82;8.35;;;;;;;16.56;34.33;100203.38;4024983;29;19980;-58
2022/04/19 09:57:26;;;;;;;13.43;8.60;;;;;;;16.62;33.47;100200.63;4022913;29;20102;-58
2022/04/19 09:59:31;;;;;;;13.52;8.25;;;;;;;16.48;34.36;100203.44;4023771;29;20046;-59
2022/04/19 10:08:41;;;;;;;11.35;6.88;;;;;;;16.99;31.62;100193.97;4033976;29;20043;-58
2022/04/19 10:10:46;;;;;;;12.45;6.25;;;;;;;16.81;33.24;100192.50;4023678;29;20075;-58
2022/04/19 10:12:49;;;;;;;13.50;8.43;;;;;;;16.96;33.44;100188.78;4037842;29;20160;-58
2022/04/19 10:14:55;;;;;;;16.15;8.88;;;;;;;17.06;32.71;100191.22;4023595;29;20132;-58